Time;durP1;ratioP1;P1;durP2;ratioP2;P2;SDS_P1;SDS_P2;PMS_P1;PMS_P2;Temp;Humidity;BMP_temperature;BMP_pressure;BME280_temperature;BME280_humidity;BME280_pressure;Samples;Min_cycle;Max_cycle;Signal;HPM_P1;HPM_P2
2024/03/30 00:01:22;;;;;;;7.07;3.90;;;10.50;99.90;;;;;;5076482;28;20550;-79
2024/03/30 00:03:47;;;;;;;5.82;3.80;;;10.50;99.90;;;;;;5074574;28;20059;-78
2024/03/30 00:06:13;;;;;;;7.47;3.75;;;10.60;99.90;;;;;;5075371;28;20115;-78
2024/03/30 00:08:39;;;;;;;6.57;3.70;;;10.50;99.90;;;;;;5075384;28;20081;-79
2024/03/30 00:11:05;;;;;;;5.43;3.80;;;10.50;99.90;;;;;;5074557;28;20032;-79
2024/03/30 00:13:31;;;;;;;3.72;3.10;;;10.50;99.90;;;;;;5057675;28;20527;-79
2024/03/30 00:15:57;;;;;;;5.50;4.18;;;10.50;99.90;;;;;;5074955;28;20059;-79
2024/03/30 00:18:23;;;;;;;4.97;3.70;;;10.50;99.90;;;;;;5074812;28;20442;-79
2024/03/30 00:20:49;;;;;;;4.72;3.55;;;10.40;99.90;;;;;;5058308;28;20170;-79
2024/03/30 00:23:15;;;;;;;5.75;3.80;;;10.40;99.90;;;;;;5073928;28;20432;-79
2024/03/30 00:25:50;;;;;;;4.18;3.60;;;10.30;99.90;;;;;;5075443;28;20044;-79
2024/03/30 00:28:16;;;;;;;4.53;3.63;;;10.30;99.90;;;;;;5074875;28;20115;-79
2024/03/30 00:30:45;;;;;;;5.78;3.38;;;10.30;99.90;;;;;;5057698;28;20076;-78
2024/03/30 00:33:11;;;;;;;4.68;3.58;;;10.30;99.90;;;;;;5073938;28;20576;-79
2024/03/30 00:35:37;;;;;;;4.90;3.78;;;10.30;99.90;;;;;;5075035;28;20399;-79
2024/03/30 00:38:04;;;;;;;4.63;4.13;;;10.20;99.90;;;;;;5074118;28;20108;-79
2024/03/30 00:40:29;;;;;;;4.80;3.63;;;10.20;99.90;;;;;;5056562;28;20037;-78
2024/03/30 00:42:55;;;;;;;4.82;4.10;;;10.20;99.90;;;;;;5073314;28;20465;-79
2024/03/30 00:45:21;;;;;;;4.55;3.58;;;10.10;99.90;;;;;;5074353;28;20115;-79
2024/03/30 00:47:47;;;;;;;5.80;4.38;;;10.10;99.90;;;;;;5074066;28;20028;-78
2024/03/30 00:50:13;;;;;;;7.05;3.72;;;10.10;99.90;;;;;;5073974;28;20047;-79
2024/03/30 00:52:38;;;;;;;6.93;4.28;;;10.10;99.90;;;;;;5072931;28;20036;-79
2024/03/30 00:55:04;;;;;;;6.32;3.63;;;10.10;99.90;;;;;;5073445;28;20046;-79
2024/03/30 00:57:30;;;;;;;5.28;3.53;;;10.10;99.90;;;;;;5074552;28;20032;-79
2024/03/30 00:59:56;;;;;;;4.38;3.90;;;10.20;99.90;;;;;;5072979;28;20051;-78
2024/03/30 01:02:21;;;;;;;8.10;4.15;;;10.10;99.90;;;;;;5072820;28;20043;-79
2024/03/30 01:04:47;;;;;;;6.78;4.40;;;10.20;99.90;;;;;;5073424;28;20446;-79
2024/03/30 01:07:13;;;;;;;8.90;4.32;;;10.20;99.90;;;;;;5075007;28;20557;-78
2024/03/30 01:09:38;;;;;;;5.68;5.03;;;10.20;99.90;;;;;;5073101;28;20032;-78
2024/03/30 01:12:04;;;;;;;7.13;4.70;;;10.20;99.90;;;;;;5072815;28;20411;-78
2024/03/30 01:14:33;;;;;;;6.40;5.03;;;10.20;99.90;;;;;;5072245;28;20480;-78
2024/03/30 01:16:59;;;;;;;5.88;4.53;;;10.30;99.90;;;;;;5072233;28;20064;-78
2024/03/30 01:19:25;;;;;;;6.88;4.43;;;10.20;99.90;;;;;;5072994;28;20098;-78
2024/03/30 01:21:51;;;;;;;4.43;3.95;;;10.20;99.90;;;;;;5072629;28;20037;-79
2024/03/30 01:24:17;;;;;;;6.05;4.65;;;10.20;99.90;;;;;;5073479;28;20400;-78
2024/03/30 01:26:55;;;;;;;6.43;4.35;;;10.10;99.90;;;;;;5072841;28;20036;-79
2024/03/30 01:29:24;;;;;;;5.22;3.92;;;10.10;99.90;;;;;;5072330;28;20037;-78
2024/03/30 01:31:51;;;;;;;6.45;4.28;;;10.00;99.90;;;;;;5072280;28;20059;-79
2024/03/30 01:34:17;;;;;;;6.30;4.20;;;10.00;99.90;;;;;;5054695;28;20076;-79
2024/03/30 01:36:43;;;;;;;4.40;3.80;;;10.00;99.90;;;;;;5072727;28;20041;-79
2024/03/30 01:39:08;;;;;;;4.90;3.88;;;9.90;99.90;;;;;;5072026;28;20044;-78
2024/03/30 01:41:35;;;;;;;5.95;3.40;;;10.00;99.90;;;;;;5072252;28;20086;-79
2024/03/30 01:44:01;;;;;;;3.97;3.50;;;10.00;99.90;;;;;;5071632;28;20047;-79
2024/03/30 01:46:28;;;;;;;4.05;3.22;;;10.10;99.90;;;;;;5072096;28;20040;-78
2024/03/30 01:48:55;;;;;;;5.20;3.42;;;10.00;99.90;;;;;;5072468;28;20028;-78
2024/03/30 01:51:21;;;;;;;3.40;3.10;;;10.00;99.90;;;;;;5072035;28;20056;-77
2024/03/30 01:53:47;;;;;;;5.82;2.72;;;10.10;99.90;;;;;;5071305;28;20496;-77
2024/03/30 01:56:13;;;;;;;4.57;3.20;;;10.10;99.90;;;;;;5073312;28;20086;-79
2024/03/30 01:58:39;;;;;;;3.55;2.50;;;10.20;99.90;;;;;;5071726;28;20033;-78
2024/03/30 02:01:05;;;;;;;4.10;2.47;;;10.20;99.90;;;;;;5071875;28;20040;-78
2024/03/30 02:03:31;;;;;;;4.07;2.72;;;10.20;99.90;;;;;;5071111;28;20068;-79
2024/03/30 02:05:58;;;;;;;3.72;2.72;;;10.20;99.90;;;;;;5073234;28;20463;-78
2024/03/30 02:08:26;;;;;;;3.38;2.72;;;10.20;99.90;;;;;;5073536;28;20037;-78
2024/03/30 02:10:53;;;;;;;3.00;2.60;;;10.20;99.90;;;;;;5071771;28;20045;-79
2024/03/30 02:13:19;;;;;;;2.70;2.42;;;10.10;99.90;;;;;;5070980;28;20041;-79
2024/03/30 02:15:45;;;;;;;4.30;2.72;;;10.10;99.90;;;;;;5054759;28;20036;-79
2024/03/30 02:18:10;;;;;;;3.38;2.38;;;10.10;99.90;;;;;;5071893;28;20043;-79
2024/03/30 02:20:36;;;;;;;3.50;2.70;;;10.10;99.90;;;;;;5072414;28;20043;-78
2024/03/30 02:23:02;;;;;;;3.63;2.60;;;10.10;99.90;;;;;;5053973;28;20173;-79
2024/03/30 02:25:27;;;;;;;3.20;2.53;;;10.10;99.90;;;;;;5070475;28;20500;-77
2024/03/30 02:27:53;;;;;;;3.55;2.05;;;10.10;99.90;;;;;;5073215;28;20037;-76
2024/03/30 02:30:28;;;;;;;5.25;3.55;;;10.00;99.90;;;;;;5056596;28;20119;-77
2024/03/30 02:32:55;;;;;;;5.90;3.85;;;10.10;99.90;;;;;;5073202;28;20496;-77
2024/03/30 02:35:21;;;;;;;6.13;4.38;;;10.10;99.90;;;;;;5073248;28;20045;-77
2024/03/30 02:37:47;;;;;;;6.32;4.13;;;10.00;99.90;;;;;;5073337;28;20127;-78
2024/03/30 02:40:13;;;;;;;4.38;3.50;;;10.00;99.90;;;;;;5072949;28;20403;-77
2024/03/30 02:42:39;;;;;;;5.07;3.38;;;10.10;99.90;;;;;;5073973;28;20082;-77
2024/03/30 02:45:12;;;;;;;5.10;2.88;;;10.00;99.90;;;;;;5072896;28;20043;-76
2024/03/30 02:47:41;;;;;;;4.27;3.20;;;10.10;99.90;;;;;;5074401;28;20484;-77
2024/03/30 02:50:07;;;;;;;6.88;3.50;;;10.10;99.90;;;;;;5072863;28;20036;-77
2024/03/30 02:52:33;;;;;;;5.25;2.95;;;10.10;99.90;;;;;;5072591;28;20040;-77
2024/03/30 02:54:58;;;;;;;3.55;2.88;;;10.10;99.90;;;;;;5072880;28;20042;-77
2024/03/30 02:57:24;;;;;;;3.90;2.80;;;10.10;99.90;;;;;;5074328;28;20453;-77
2024/03/30 02:59:50;;;;;;;5.53;3.00;;;10.10;99.90;;;;;;5072855;28;20044;-76
2024/03/30 03:02:15;;;;;;;5.15;2.75;;;10.10;99.90;;;;;;5072769;28;20037;-77
2024/03/30 03:04:41;;;;;;;4.25;3.60;;;10.10;99.90;;;;;;5072211;28;20131;-75
2024/03/30 03:07:07;;;;;;;4.32;2.90;;;10.10;99.90;;;;;;5049747;28;20041;-77
2024/03/30 03:09:33;;;;;;;4.30;2.90;;;10.10;99.90;;;;;;5064184;28;20057;-77
2024/03/30 03:11:59;;;;;;;4.85;3.17;;;10.10;99.90;;;;;;5074093;28;20045;-77
2024/03/30 03:14:25;;;;;;;4.93;3.33;;;10.10;99.90;;;;;;5072155;28;20045;-77
2024/03/30 03:16:51;;;;;;;3.90;3.20;;;10.10;99.90;;;;;;5064137;28;20040;-77
2024/03/30 03:19:16;;;;;;;4.78;3.20;;;10.10;99.90;;;;;;5072458;28;20036;-77
2024/03/30 03:21:42;;;;;;;5.93;3.20;;;10.10;99.90;;;;;;5072613;28;20071;-77
2024/03/30 03:24:08;;;;;;;4.57;3.45;;;10.10;99.90;;;;;;5072173;28;20036;-77
2024/03/30 03:26:34;;;;;;;5.85;3.90;;;10.10;99.90;;;;;;5072352;28;20032;-76
2024/03/30 03:29:00;;;;;;;3.53;3.17;;;10.10;99.90;;;;;;5072459;28;20098;-77
2024/03/30 03:31:25;;;;;;;7.30;3.50;;;10.10;99.90;;;;;;5072166;28;20033;-77
2024/03/30 03:33:51;;;;;;;4.68;3.28;;;10.10;99.90;;;;;;5071837;28;20037;-77
2024/03/30 03:36:17;;;;;;;4.13;2.85;;;10.10;99.90;;;;;;5072537;28;20032;-77
2024/03/30 03:38:42;;;;;;;4.97;3.05;;;10.10;99.90;;;;;;5071474;28;20091;-76
2024/03/30 03:41:08;;;;;;;5.25;3.38;;;10.10;99.90;;;;;;5072122;28;20082;-78
2024/03/30 03:43:36;;;;;;;7.22;4.20;;;10.10;99.90;;;;;;5073090;28;20041;-77
2024/03/30 03:46:04;;;;;;;3.83;3.13;;;10.00;99.90;;;;;;5071899;28;20120;-77
2024/03/30 03:48:30;;;;;;;5.13;4.15;;;10.10;99.90;;;;;;5072477;28;20590;-78
2024/03/30 03:50:55;;;;;;;6.18;3.53;;;10.10;99.90;;;;;;5073177;28;20149;-77
2024/03/30 03:53:21;;;;;;;6.53;3.78;;;10.10;99.90;;;;;;5072827;28;20036;-77
2024/03/30 03:55:47;;;;;;;5.78;4.75;;;10.10;99.90;;;;;;5055338;28;20048;-77
2024/03/30 03:58:12;;;;;;;4.93;3.58;;;10.10;99.90;;;;;;5071934;28;20515;-76
2024/03/30 04:00:38;;;;;;;4.38;3.50;;;10.10;99.90;;;;;;5072757;28;20167;-77
2024/03/30 04:03:05;;;;;;;6.57;3.58;;;10.20;99.90;;;;;;5071231;28;20040;-77
2024/03/30 04:05:32;;;;;;;4.95;3.55;;;10.10;99.90;;;;;;5071712;28;20403;-76
2024/03/30 04:07:57;;;;;;;4.75;3.35;;;10.20;99.90;;;;;;5050231;28;20400;-77
2024/03/30 04:10:24;;;;;;;4.57;4.18;;;10.20;99.90;;;;;;5068028;28;20040;-77
2024/03/30 04:12:50;;;;;;;4.55;3.88;;;10.10;99.90;;;;;;5072538;28;20120;-77
2024/03/30 04:15:16;;;;;;;4.40;3.45;;;10.20;99.90;;;;;;5071389;28;20040;-77
2024/03/30 04:17:42;;;;;;;4.93;3.70;;;10.20;99.90;;;;;;5071718;28;20094;-77
2024/03/30 04:20:08;;;;;;;4.45;3.58;;;10.20;99.90;;;;;;5071259;28;20076;-77
2024/03/30 04:22:34;;;;;;;8.65;4.32;;;10.10;99.90;;;;;;5070841;28;20475;-77
2024/03/30 04:24:59;;;;;;;6.28;4.15;;;10.10;99.90;;;;;;5071349;28;20032;-77
2024/03/30 04:27:25;;;;;;;7.70;4.07;;;10.10;99.90;;;;;;5072549;28;20077;-77
2024/03/30 04:29:51;;;;;;;5.47;4.13;;;10.00;99.90;;;;;;5070753;28;20128;-77
2024/03/30 04:32:16;;;;;;;5.25;4.35;;;10.10;99.90;;;;;;5072697;28;20040;-77
2024/03/30 04:34:42;;;;;;;7.70;5.05;;;10.00;99.90;;;;;;5071168;28;20045;-76
2024/03/30 04:37:07;;;;;;;6.95;4.70;;;10.00;99.90;;;;;;5070997;28;20040;-76
2024/03/30 04:39:34;;;;;;;6.95;4.70;;;10.00;99.90;;;;;;5054059;28;20051;-76
2024/03/30 04:41:59;;;;;;;8.98;4.63;;;10.00;99.90;;;;;;5070853;28;20419;-76
2024/03/30 04:44:25;;;;;;;6.63;4.97;;;10.00;99.90;;;;;;5070294;28;20037;-75
2024/03/30 04:46:51;;;;;;;7.03;5.00;;;10.00;99.90;;;;;;5071385;28;20145;-76
2024/03/30 04:49:17;;;;;;;6.95;5.50;;;9.90;99.90;;;;;;5070478;28;20504;-76
2024/03/30 04:51:43;;;;;;;7.53;5.25;;;9.90;99.90;;;;;;5070569;28;20071;-77
2024/03/30 04:54:08;;;;;;;8.15;5.93;;;9.90;99.90;;;;;;5070258;28;20074;-77
2024/03/30 04:56:34;;;;;;;9.82;6.45;;;9.90;99.90;;;;;;5071729;28;20040;-77
2024/03/30 04:58:59;;;;;;;7.13;6.18;;;9.90;99.90;;;;;;5070622;28;20041;-76
2024/03/30 05:01:25;;;;;;;7.55;5.85;;;9.90;99.90;;;;;;5053544;28;20495;-77
2024/03/30 05:03:51;;;;;;;8.52;6.60;;;9.90;99.90;;;;;;5071531;28;20036;-77
2024/03/30 05:06:16;;;;;;;9.50;6.63;;;9.90;99.90;;;;;;5071803;28;20112;-77
2024/03/30 05:08:42;;;;;;;11.13;7.40;;;9.90;99.90;;;;;;5070722;28;20044;-77
2024/03/30 05:11:08;;;;;;;9.65;7.38;;;9.90;99.90;;;;;;5070465;28;20086;-75
2024/03/30 05:13:33;;;;;;;11.10;7.88;;;9.90;99.90;;;;;;5069812;28;20037;-77
2024/03/30 05:15:59;;;;;;;10.52;8.73;;;9.90;99.90;;;;;;5070278;28;20036;-77
2024/03/30 05:18:27;;;;;;;10.57;7.40;;;9.90;99.90;;;;;;5065143;28;20071;-77
2024/03/30 05:20:59;;;;;;;11.77;8.93;;;9.90;99.90;;;;;;5050055;28;20048;-77
2024/03/30 05:23:28;;;;;;;10.38;8.43;;;9.90;99.90;;;;;;5049713;28;20082;-77
2024/03/30 05:25:56;;;;;;;11.55;8.63;;;9.90;99.90;;;;;;5050078;28;20045;-76
2024/03/30 05:28:27;;;;;;;13.73;9.57;;;9.90;99.90;;;;;;5050446;28;20126;-76
2024/03/30 05:30:54;;;;;;;11.65;8.70;;;9.90;99.90;;;;;;5049883;28;20052;-77
2024/03/30 05:33:21;;;;;;;13.23;9.35;;;9.90;99.90;;;;;;5050804;28;20036;-75
2024/03/30 05:35:47;;;;;;;13.48;9.07;;;9.90;99.90;;;;;;5049852;28;20041;-77
2024/03/30 05:38:13;;;;;;;11.55;8.80;;;9.90;99.90;;;;;;5033230;28;20059;-77
2024/03/30 05:40:39;;;;;;;13.40;9.98;;;9.90;99.90;;;;;;5049956;28;20471;-77
2024/03/30 05:43:05;;;;;;;13.77;9.23;;;9.90;99.90;;;;;;5049368;28;20116;-77
2024/03/30 05:45:33;;;;;;;13.50;9.93;;;9.90;99.90;;;;;;5075760;22;20394;-77
2024/03/30 05:47:59;;;;;;;14.15;10.18;;;9.90;99.90;;;;;;5036627;28;20041;-76
2024/03/30 05:50:26;;;;;;;16.42;11.57;;;9.90;99.90;;;;;;5054231;28;20500;-77
2024/03/30 05:52:52;;;;;;;15.68;10.85;;;9.90;99.90;;;;;;5018567;28;20127;-77
2024/03/30 05:55:18;;;;;;;13.40;10.02;;;9.90;99.90;;;;;;5036124;28;20037;-77
2024/03/30 05:57:44;;;;;;;15.40;10.70;;;9.90;99.90;;;;;;5036394;28;20106;-77
2024/03/30 06:00:11;;;;;;;16.77;11.65;;;9.90;99.90;;;;;;5036307;28;20117;-77
2024/03/30 06:02:38;;;;;;;15.50;11.30;;;9.90;99.90;;;;;;5039784;28;20397;-77
2024/03/30 06:05:04;;;;;;;17.23;11.55;;;9.80;99.90;;;;;;5042464;28;20036;-76
2024/03/30 06:07:30;;;;;;;14.63;11.77;;;9.80;99.90;;;;;;5039792;28;20051;-77
2024/03/30 06:09:56;;;;;;;16.23;11.82;;;9.80;99.90;;;;;;5023284;28;20033;-77
2024/03/30 06:12:21;;;;;;;16.08;11.40;;;9.80;99.90;;;;;;5023156;28;20076;-77
2024/03/30 06:14:47;;;;;;;16.45;12.23;;;9.90;99.90;;;;;;5042162;28;20036;-77
2024/03/30 06:17:14;;;;;;;15.73;10.80;;;9.80;99.90;;;;;;5042534;28;20037;-77
2024/03/30 06:19:43;;;;;;;16.30;12.63;;;9.80;99.90;;;;;;5061206;28;20041;-77
2024/03/30 06:22:09;;;;;;;17.13;11.90;;;9.90;99.90;;;;;;5057789;28;20033;-76
2024/03/30 06:24:36;;;;;;;15.38;12.30;;;9.90;99.90;;;;;;5042313;28;20043;-76
2024/03/30 06:27:03;;;;;;;19.10;12.60;;;9.80;99.90;;;;;;5041771;28;20056;-77
2024/03/30 06:29:29;;;;;;;19.42;13.57;;;9.80;99.90;;;;;;5042056;28;20037;-76
2024/03/30 06:31:55;;;;;;;20.10;13.13;;;9.80;99.90;;;;;;5042654;28;20466;-75
2024/03/30 06:34:20;;;;;;;17.60;13.43;;;9.80;99.90;;;;;;5042482;28;20068;-77
2024/03/30 06:36:46;;;;;;;17.10;12.60;;;9.80;99.90;;;;;;5057391;28;20041;-76
2024/03/30 06:39:12;;;;;;;16.15;12.35;;;9.80;99.90;;;;;;5040777;28;20044;-77
2024/03/30 06:44:21;;;;;;;17.48;12.30;;;9.80;99.90;;;;;;5042670;28;20045;-76
2024/03/30 06:46:47;;;;;;;15.38;11.80;;;9.80;99.90;;;;;;5044931;28;20456;-77
2024/03/30 06:49:12;;;;;;;18.27;13.20;;;9.80;99.90;;;;;;5042937;28;20044;-77
2024/03/30 06:51:38;;;;;;;19.77;14.27;;;9.80;99.90;;;;;;5047035;28;20033;-76
2024/03/30 06:54:04;;;;;;;18.27;13.73;;;9.80;99.90;;;;;;5045432;28;20037;-77
2024/03/30 06:56:29;;;;;;;17.63;12.52;;;9.80;99.90;;;;;;5046963;28;20048;-76
2024/03/30 06:58:55;;;;;;;17.60;13.25;;;9.80;99.90;;;;;;5043449;28;20048;-77
2024/03/30 07:01:21;;;;;;;17.25;12.90;;;9.90;99.90;;;;;;5059854;28;20037;-77
2024/03/30 07:03:47;;;;;;;15.52;12.07;;;9.90;99.90;;;;;;5042042;28;20072;-78
2024/03/30 07:06:14;;;;;;;18.25;13.38;;;9.90;99.90;;;;;;5060570;28;20040;-77
2024/03/30 07:08:39;;;;;;;17.60;12.68;;;9.90;99.90;;;;;;5061180;28;20045;-76
2024/03/30 07:11:05;;;;;;;19.27;14.57;;;10.00;99.90;;;;;;5025496;28;20400;-77
2024/03/30 07:13:31;;;;;;;17.58;12.98;;;9.90;99.90;;;;;;5037106;28;20037;-75
2024/03/30 07:15:57;;;;;;;18.92;13.80;;;9.90;99.90;;;;;;5040040;28;20040;-76
2024/03/30 07:18:23;;;;;;;16.10;12.10;;;9.90;99.90;;;;;;5021385;28;20405;-78
2024/03/30 07:20:49;;;;;;;18.63;13.52;;;10.00;99.90;;;;;;5041137;28;20033;-78
2024/03/30 07:23:15;;;;;;;18.30;13.43;;;10.00;99.90;;;;;;5040328;28;20049;-76
2024/03/30 07:25:40;;;;;;;17.40;12.38;;;10.00;99.90;;;;;;5057866;28;20036;-77
2024/03/30 07:28:06;;;;;;;15.18;12.27;;;10.00;99.90;;;;;;5057550;28;20041;-78
2024/03/30 07:30:43;;;;;;;19.35;12.45;;;10.00;99.90;;;;;;5039238;28;20049;-78
2024/03/30 07:33:09;;;;;;;17.25;12.20;;;10.10;99.90;;;;;;5036854;28;20043;-78
2024/03/30 07:35:35;;;;;;;15.50;11.18;;;10.10;99.90;;;;;;5002795;28;20509;-78
2024/03/30 07:38:00;;;;;;;15.52;10.93;;;10.20;99.90;;;;;;5019384;28;20134;-77
2024/03/30 07:40:26;;;;;;;14.32;10.98;;;10.20;99.90;;;;;;5019004;28;20083;-79
2024/03/30 07:42:52;;;;;;;14.63;10.60;;;10.20;99.90;;;;;;5019458;28;20463;-77
2024/03/30 07:45:18;;;;;;;12.73;10.13;;;10.30;99.90;;;;;;5003524;28;20040;-77
2024/03/30 07:47:44;;;;;;;14.73;11.20;;;10.30;99.90;;;;;;5018794;28;20037;-78
2024/03/30 07:50:09;;;;;;;14.63;10.07;;;10.30;99.90;;;;;;5003654;28;20045;-77
2024/03/30 07:52:35;;;;;;;12.52;9.57;;;10.40;99.90;;;;;;5018932;28;20049;-77
2024/03/30 07:55:01;;;;;;;13.38;9.13;;;10.40;99.90;;;;;;5002291;28;20112;-78
2024/03/30 07:57:27;;;;;;;15.45;9.90;;;10.50;99.90;;;;;;5036489;28;20084;-75
2024/03/30 07:59:53;;;;;;;13.60;9.00;;;10.70;99.90;;;;;;5035095;28;20069;-75
2024/03/30 08:02:18;;;;;;;13.05;9.48;;;10.80;99.90;;;;;;5018419;28;20087;-74
2024/03/30 08:04:44;;;;;;;12.40;8.85;;;10.80;99.90;;;;;;5017076;28;20083;-77
2024/03/30 08:07:10;;;;;;;12.25;8.73;;;11.00;99.90;;;;;;5015645;28;20065;-76
2024/03/30 08:09:36;;;;;;;12.48;8.38;;;11.00;99.90;;;;;;5015608;28;20456;-75
2024/03/30 08:12:02;;;;;;;13.50;8.70;;;11.00;99.90;;;;;;5019345;28;20045;-78
2024/03/30 08:14:27;;;;;;;9.55;7.80;;;11.00;99.90;;;;;;4999387;28;20072;-75
2024/03/30 08:16:53;;;;;;;10.00;7.93;;;11.10;99.90;;;;;;5000318;28;20068;-76
2024/03/30 08:19:19;;;;;;;10.95;7.88;;;11.10;99.90;;;;;;5016133;28;20048;-74
2024/03/30 08:21:45;;;;;;;12.63;8.55;;;11.20;99.90;;;;;;5027062;28;20128;-75
2024/03/30 08:24:10;;;;;;;10.68;7.45;;;11.30;99.90;;;;;;5034877;28;20048;-75
2024/03/30 08:26:36;;;;;;;10.65;7.65;;;11.40;99.90;;;;;;5034296;28;20116;-76
2024/03/30 08:29:03;;;;;;;11.32;7.15;;;11.40;99.90;;;;;;5035803;28;20044;-75
2024/03/30 08:31:29;;;;;;;9.43;7.00;;;11.50;99.90;;;;;;5053496;28;20091;-75
2024/03/30 08:33:55;;;;;;;10.35;7.43;;;11.60;99.90;;;;;;5018658;28;20041;-76
2024/03/30 08:36:22;;;;;;;11.88;6.93;;;11.50;99.90;;;;;;5018633;28;20123;-75
2024/03/30 08:38:47;;;;;;;9.63;7.35;;;11.60;99.90;;;;;;5034620;28;20404;-76
2024/03/30 08:41:13;;;;;;;12.30;7.57;;;11.60;99.90;;;;;;5052006;28;20119;-74
2024/03/30 08:43:38;;;;;;;11.00;7.22;;;11.60;99.90;;;;;;5052462;28;20520;-75
2024/03/30 08:46:04;;;;;;;10.52;6.78;;;11.70;99.90;;;;;;5018413;28;20037;-75
2024/03/30 08:48:36;;;;;;;10.70;7.38;;;11.70;99.90;;;;;;5035868;28;20040;-75
2024/03/30 08:51:02;;;;;;;12.07;7.47;;;11.70;99.90;;;;;;5036090;28;20037;-75
2024/03/30 08:53:28;;;;;;;11.43;7.32;;;11.70;99.90;;;;;;5054245;28;20069;-76
2024/03/30 08:56:01;;;;;;;10.38;8.10;;;11.70;99.90;;;;;;5054174;28;20041;-75
2024/03/30 08:58:27;;;;;;;10.02;7.20;;;11.80;99.90;;;;;;5034502;28;20117;-75
2024/03/30 09:00:53;;;;;;;11.48;7.43;;;11.90;99.90;;;;;;5033371;28;20123;-74
2024/03/30 09:03:20;;;;;;;10.95;7.07;;;12.00;99.90;;;;;;5050924;28;20045;-74
2024/03/30 09:05:46;;;;;;;9.95;7.10;;;12.10;99.90;;;;;;5017278;28;20114;-74
2024/03/30 09:08:13;;;;;;;10.27;7.22;;;12.20;99.90;;;;;;5033668;28;20041;-74
2024/03/30 09:10:39;;;;;;;9.43;6.60;;;12.40;99.90;;;;;;5033374;28;20076;-74
2024/03/30 09:13:05;;;;;;;7.70;5.47;;;12.50;99.90;;;;;;5050865;28;20049;-75
2024/03/30 09:15:31;;;;;;;7.78;5.50;;;12.50;99.90;;;;;;5033455;28;20047;-75
2024/03/30 09:17:57;;;;;;;8.05;5.82;;;12.50;99.90;;;;;;5050747;28;20052;-75
2024/03/30 09:20:22;;;;;;;6.63;5.40;;;12.60;99.90;;;;;;5051022;28;20090;-74
2024/03/30 09:22:48;;;;;;;7.40;5.20;;;12.70;99.90;;;;;;5031196;28;20041;-75
2024/03/30 09:25:14;;;;;;;8.70;5.50;;;12.80;99.90;;;;;;5031699;28;20400;-74
2024/03/30 09:27:43;;;;;;;7.00;4.53;;;12.80;99.90;;;;;;5032571;28;20045;-75
2024/03/30 09:30:10;;;;;;;7.40;4.80;;;13.00;99.90;;;;;;5033188;28;20091;-74
2024/03/30 09:32:39;;;;;;;4.40;3.85;;;13.10;99.90;;;;;;5033310;28;20071;-75
2024/03/30 09:35:09;;;;;;;6.47;4.35;;;13.10;99.90;;;;;;5033613;28;20483;-75
2024/03/30 09:37:36;;;;;;;4.97;3.75;;;13.30;99.90;;;;;;5033028;28;20533;-75
2024/03/30 09:40:03;;;;;;;6.72;4.50;;;13.30;99.90;;;;;;5051059;28;20155;-75
2024/03/30 09:42:35;;;;;;;4.45;3.60;;;13.30;99.90;;;;;;5016599;28;20048;-74
2024/03/30 09:45:01;;;;;;;5.70;3.92;;;13.40;99.90;;;;;;5051210;28;20040;-74
2024/03/30 09:47:29;;;;;;;4.95;3.67;;;13.40;99.90;;;;;;5033503;28;20045;-76
2024/03/30 09:50:00;;;;;;;4.18;3.70;;;13.50;99.90;;;;;;5033241;28;20037;-76
2024/03/30 09:52:28;;;;;;;4.65;3.92;;;13.60;99.90;;;;;;5033009;28;20041;-76
2024/03/30 09:54:58;;;;;;;6.47;3.90;;;13.60;99.90;;;;;;5051399;28;20041;-76
2024/03/30 09:57:25;;;;;;;4.90;3.70;;;13.60;99.90;;;;;;5051384;28;20044;-76
2024/03/30 09:59:51;;;;;;;5.38;4.18;;;13.70;99.90;;;;;;5033107;28;20528;-75
2024/03/30 10:02:16;;;;;;;5.28;3.90;;;13.80;99.90;;;;;;5051072;28;20136;-75
2024/03/30 10:04:42;;;;;;;5.07;3.65;;;13.90;99.90;;;;;;5050580;28;20052;-76
2024/03/30 10:07:35;;;;;;;5.30;3.92;;;14.00;99.90;;;;;;5051071;28;20033;-76
2024/03/30 10:10:14;;;;;;;5.20;4.10;;;14.00;99.90;;;;;;5029564;28;20385;-76
2024/03/30 10:13:02;;;;;;;4.80;3.80;;;14.10;99.90;;;;;;5032816;28;20049;-76
2024/03/30 10:15:38;;;;;;;4.78;3.50;;;14.10;99.90;;;;;;5033034;28;20033;-76
2024/03/30 10:18:04;;;;;;;6.53;3.40;;;14.20;99.90;;;;;;5033203;28;20049;-75
2024/03/30 10:20:30;;;;;;;5.45;3.83;;;14.20;99.90;;;;;;5050709;28;20462;-76
2024/03/30 10:22:56;;;;;;;4.93;3.78;;;14.30;99.90;;;;;;5032640;28;20076;-76
2024/03/30 10:25:24;;;;;;;7.00;3.75;;;14.40;99.90;;;;;;5050531;28;20036;-75
2024/03/30 10:27:49;;;;;;;8.15;4.07;;;14.40;99.90;;;;;;5033176;28;20033;-75
2024/03/30 10:30:16;;;;;;;6.50;3.67;;;14.30;99.90;;;;;;5050559;28;20102;-76
2024/03/30 10:32:44;;;;;;;5.13;3.72;;;14.30;99.90;;;;;;5016407;28;20450;-76
2024/03/30 10:35:10;;;;;;;7.28;3.65;;;14.30;99.90;;;;;;5032886;28;20128;-76
2024/03/30 10:37:36;;;;;;;7.60;4.50;;;14.30;99.90;;;;;;5033030;28;20055;-76
2024/03/30 10:40:09;;;;;;;8.90;3.97;;;14.40;99.90;;;;;;5050863;28;20120;-75
2024/03/30 10:42:34;;;;;;;6.20;3.35;;;14.50;99.90;;;;;;5016036;28;20492;-76
2024/03/30 10:45:01;;;;;;;8.25;3.75;;;14.50;99.90;;;;;;5050666;28;20088;-75
2024/03/30 10:47:30;;;;;;;11.88;4.20;;;14.60;99.90;;;;;;5033141;28;20404;-76
2024/03/30 10:50:00;;;;;;;6.57;4.10;;;14.70;99.90;;;;;;5036164;28;20037;-76
2024/03/30 10:52:25;;;;;;;5.43;3.63;;;14.70;99.90;;;;;;5036361;28;20045;-76
2024/03/30 10:54:55;;;;;;;5.22;4.13;;;14.70;99.90;;;;;;5054249;28;20515;-76
2024/03/30 10:57:22;;;;;;;6.80;3.67;;;14.60;99.90;;;;;;5054101;28;20041;-76
2024/03/30 10:59:49;;;;;;;9.85;3.90;;;14.60;99.90;;;;;;5036189;28;20044;-75
2024/03/30 11:02:35;;;;;;;12.13;4.38;;;14.50;99.90;;;;;;5036211;28;20044;-76
2024/03/30 11:05:02;;;;;;;14.65;3.63;;;14.50;99.90;;;;;;5019802;28;20044;-76
2024/03/30 11:07:28;;;;;;;14.98;4.63;;;14.50;99.90;;;;;;5036137;28;20075;-76
2024/03/30 11:09:55;;;;;;;8.35;4.40;;;14.50;99.90;;;;;;5035871;28;20080;-76
2024/03/30 11:12:23;;;;;;;10.88;3.92;;;14.50;99.90;;;;;;5035874;28;20082;-76
2024/03/30 11:14:50;;;;;;;14.05;3.72;;;14.50;99.90;;;;;;5035885;28;20048;-76
2024/03/30 11:17:25;;;;;;;10.85;4.20;;;14.60;99.90;;;;;;5036005;28;20048;-76
2024/03/30 11:20:11;;;;;;;13.95;4.32;;;14.70;99.90;;;;;;5035693;28;20049;-76
2024/03/30 11:22:43;;;;;;;14.93;4.47;;;14.80;99.90;;;;;;5035412;28;20527;-76
2024/03/30 11:25:12;;;;;;;12.43;4.88;;;14.90;99.90;;;;;;5035979;28;20045;-77
2024/03/30 11:28:11;;;;;;;15.20;4.88;;;15.10;99.90;;;;;;5035756;28;20048;-76
2024/03/30 11:31:01;;;;;;;14.98;4.68;;;15.30;99.90;;;;;;4998021;28;20105;-76
2024/03/30 11:33:37;;;;;;;11.55;4.55;;;15.50;99.90;;;;;;5053120;28;20041;-76
2024/03/30 11:36:22;;;;;;;15.98;3.83;;;15.60;99.90;;;;;;5035845;28;20044;-76
2024/03/30 11:38:52;;;;;;;11.70;4.18;;;15.70;99.90;;;;;;5053889;28;20041;-75
2024/03/30 11:41:17;;;;;;;22.17;3.65;;;16.00;99.90;;;;;;5035310;28;20036;-75
2024/03/30 11:43:52;;;;;;;14.82;3.75;;;16.30;99.90;;;;;;5034683;28;20111;-76
2024/03/30 11:46:19;;;;;;;21.17;4.03;;;16.40;99.90;;;;;;5065725;23;20077;-74
2024/03/30 11:48:45;;;;;;;19.65;4.15;;;16.50;99.90;;;;;;5052360;28;20040;-74
2024/03/30 11:51:20;;;;;;;17.70;3.85;;;16.50;99.90;;;;;;5051824;28;20123;-74
2024/03/30 11:53:46;;;;;;;22.58;3.80;;;16.50;99.90;;;;;;5051666;28;20516;-74
2024/03/30 11:56:14;;;;;;;19.17;3.25;;;16.50;99.90;;;;;;5051956;28;20106;-74
2024/03/30 11:58:41;;;;;;;27.75;4.78;;;16.60;99.90;;;;;;5051817;28;20055;-74
2024/03/30 12:01:12;;;;;;;20.88;3.60;;;16.50;99.90;;;;;;5051175;28;20084;-74
2024/03/30 12:03:40;;;;;;;16.88;3.38;;;16.50;99.90;;;;;;5051371;28;20080;-74
2024/03/30 12:06:06;;;;;;;19.17;4.10;;;16.40;99.90;;;;;;5052839;28;20056;-74
2024/03/30 12:08:32;;;;;;;18.35;3.42;;;16.30;99.90;;;;;;5051581;28;20037;-74
2024/03/30 12:10:59;;;;;;;18.95;3.80;;;16.30;99.90;;;;;;5051489;28;20029;-74
2024/03/30 12:13:38;;;;;;;16.40;3.97;;;16.20;99.90;;;;;;5051352;28;20094;-74
2024/03/30 12:16:04;;;;;;;11.40;3.30;;;16.20;99.90;;;;;;5051546;28;20044;-74
2024/03/30 12:18:30;;;;;;;15.02;3.40;;;16.20;99.90;;;;;;5052623;28;20045;-74
2024/03/30 12:20:56;;;;;;;17.67;3.88;;;16.20;99.90;;;;;;5052607;28;20037;-74
2024/03/30 12:23:23;;;;;;;17.70;4.65;;;16.30;99.90;;;;;;5052461;28;20075;-74
2024/03/30 12:25:49;;;;;;;14.70;2.83;;;16.20;99.90;;;;;;5051265;28;20105;-74
2024/03/30 12:28:16;;;;;;;10.32;3.30;;;16.30;99.90;;;;;;5051550;28;20082;-73
2024/03/30 12:31:03;;;;;;;18.30;3.65;;;16.40;99.90;;;;;;5051026;28;20037;-73
2024/03/30 12:33:30;;;;;;;16.55;3.70;;;16.50;99.90;;;;;;5051037;28;20049;-73
2024/03/30 12:35:55;;;;;;;15.98;4.38;;;16.50;99.90;;;;;;5052489;28;20116;-75
2024/03/30 12:38:23;;;;;;;18.33;3.40;;;16.50;99.90;;;;;;5051237;28;20124;-73
2024/03/30 12:40:51;;;;;;;19.77;3.38;;;16.50;99.90;;;;;;5050950;28;20045;-73
2024/03/30 12:43:16;;;;;;;17.73;3.25;;;16.50;99.90;;;;;;5050482;28;20037;-73
2024/03/30 12:45:42;;;;;;;17.67;3.42;;;16.50;99.90;;;;;;5050689;28;20040;-73